sensor_id;sensor_type;location;lat;lon;timestamp;P1;durP1;ratioP1;P2;durP2;ratioP2
49590;SDS011;35496;-21.974;-46.800;2023-07-31T00:00:34;8.90;;;5.68;;
49590;SDS011;35496;-21.974;-46.800;2023-07-31T00:03:00;9.27;;;5.00;;
49590;SDS011;35496;-21.974;-46.800;2023-07-31T00:05:26;8.15;;;5.85;;
49590;SDS011;35496;-21.974;-46.800;2023-07-31T00:07:52;5.65;;;5.13;;
49590;SDS011;35496;-21.974;-46.800;2023-07-31T00:10:19;10.75;;;6.20;;
49590;SDS011;35496;-21.974;-46.800;2023-07-31T00:12:45;9.73;;;5.53;;
49590;SDS011;35496;-21.974;-46.800;2023-07-31T00:15:11;6.20;;;5.57;;
49590;SDS011;35496;-21.974;-46.800;2023-07-31T00:17:38;6.25;;;4.65;;
49590;SDS011;35496;-21.974;-46.800;2023-07-31T00:20:04;8.38;;;5.60;;
49590;SDS011;35496;-21.974;-46.800;2023-07-31T00:22:31;8.82;;;5.43;;
49590;SDS011;35496;-21.974;-46.800;2023-07-31T00:24:57;6.18;;;5.05;;
49590;SDS011;35496;-21.974;-46.800;2023-07-31T00:27:23;8.10;;;5.32;;
49590;SDS011;35496;-21.974;-46.800;2023-07-31T00:29:49;6.53;;;5.35;;
49590;SDS011;35496;-21.974;-46.800;2023-07-31T00:32:15;7.03;;;4.65;;
49590;SDS011;35496;-21.974;-46.800;2023-07-31T00:34:41;7.78;;;4.93;;
49590;SDS011;35496;-21.974;-46.800;2023-07-31T00:37:07;10.50;;;5.85;;
49590;SDS011;35496;-21.974;-46.800;2023-07-31T00:39:34;5.28;;;4.75;;
49590;SDS011;35496;-21.974;-46.800;2023-07-31T00:42:01;5.70;;;4.18;;
49590;SDS011;35496;-21.974;-46.800;2023-07-31T00:44:27;11.27;;;5.57;;
49590;SDS011;35496;-21.974;-46.800;2023-07-31T00:46:53;10.13;;;4.32;;
49590;SDS011;35496;-21.974;-46.800;2023-07-31T00:49:20;6.65;;;4.18;;
49590;SDS011;35496;-21.974;-46.800;2023-07-31T00:51:46;6.78;;;5.43;;
49590;SDS011;35496;-21.974;-46.800;2023-07-31T00:54:12;6.80;;;5.43;;
49590;SDS011;35496;-21.974;-46.800;2023-07-31T00:56:38;7.57;;;5.10;;
49590;SDS011;35496;-21.974;-46.800;2023-07-31T00:59:06;6.38;;;4.15;;
49590;SDS011;35496;-21.974;-46.800;2023-07-31T01:01:32;6.13;;;5.13;;
49590;SDS011;35496;-21.974;-46.800;2023-07-31T01:03:58;7.20;;;5.35;;
49590;SDS011;35496;-21.974;-46.800;2023-07-31T01:09:55;5.80;;;5.30;;
49590;SDS011;35496;-21.974;-46.800;2023-07-31T01:12:02;6.57;;;5.38;;
49590;SDS011;35496;-21.974;-46.800;2023-07-31T01:14:28;7.43;;;5.10;;
49590;SDS011;35496;-21.974;-46.800;2023-07-31T01:16:54;5.07;;;4.55;;
49590;SDS011;35496;-21.974;-46.800;2023-07-31T01:19:24;7.63;;;4.93;;
49590;SDS011;35496;-21.974;-46.800;2023-07-31T01:24:52;9.75;;;4.93;;
49590;SDS011;35496;-21.974;-46.800;2023-07-31T01:27:30;9.30;;;4.60;;
49590;SDS011;35496;-21.974;-46.800;2023-07-31T01:30:11;5.72;;;3.83;;
49590;SDS011;35496;-21.974;-46.800;2023-07-31T01:32:42;5.32;;;4.78;;
49590;SDS011;35496;-21.974;-46.800;2023-07-31T01:35:09;5.72;;;4.88;;
49590;SDS011;35496;-21.974;-46.800;2023-07-31T01:37:35;7.43;;;4.22;;
49590;SDS011;35496;-21.974;-46.800;2023-07-31T01:40:01;5.85;;;4.72;;
49590;SDS011;35496;-21.974;-46.800;2023-07-31T01:42:27;6.95;;;4.82;;
49590;SDS011;35496;-21.974;-46.800;2023-07-31T01:44:53;4.85;;;3.47;;
49590;SDS011;35496;-21.974;-46.800;2023-07-31T01:47:19;4.88;;;4.47;;
49590;SDS011;35496;-21.974;-46.800;2023-07-31T01:49:45;6.35;;;3.97;;
49590;SDS011;35496;-21.974;-46.800;2023-07-31T01:52:11;6.53;;;3.88;;
49590;SDS011;35496;-21.974;-46.800;2023-07-31T01:54:37;5.03;;;4.45;;
49590;SDS011;35496;-21.974;-46.800;2023-07-31T01:57:04;6.57;;;4.53;;
49590;SDS011;35496;-21.974;-46.800;2023-07-31T01:59:30;4.55;;;4.15;;
49590;SDS011;35496;-21.974;-46.800;2023-07-31T02:01:56;5.00;;;3.20;;
49590;SDS011;35496;-21.974;-46.800;2023-07-31T02:04:22;5.35;;;4.35;;
49590;SDS011;35496;-21.974;-46.800;2023-07-31T02:06:48;4.53;;;4.18;;
49590;SDS011;35496;-21.974;-46.800;2023-07-31T02:09:14;4.45;;;4.03;;
49590;SDS011;35496;-21.974;-46.800;2023-07-31T02:11:40;4.75;;;4.00;;
49590;SDS011;35496;-21.974;-46.800;2023-07-31T02:14:06;9.40;;;4.93;;
49590;SDS011;35496;-21.974;-46.800;2023-07-31T02:16:32;8.23;;;4.18;;
49590;SDS011;35496;-21.974;-46.800;2023-07-31T02:18:58;4.90;;;3.85;;
49590;SDS011;35496;-21.974;-46.800;2023-07-31T02:21:24;5.70;;;4.65;;
49590;SDS011;35496;-21.974;-46.800;2023-07-31T02:23:50;6.78;;;4.53;;
49590;SDS011;35496;-21.974;-46.800;2023-07-31T02:26:16;5.43;;;4.78;;
49590;SDS011;35496;-21.974;-46.800;2023-07-31T02:28:42;4.60;;;4.18;;
49590;SDS011;35496;-21.974;-46.800;2023-07-31T02:31:08;4.93;;;4.10;;
49590;SDS011;35496;-21.974;-46.800;2023-07-31T02:33:34;6.95;;;4.43;;
49590;SDS011;35496;-21.974;-46.800;2023-07-31T02:36:00;5.55;;;4.95;;
49590;SDS011;35496;-21.974;-46.800;2023-07-31T02:38:26;7.97;;;4.65;;
49590;SDS011;35496;-21.974;-46.800;2023-07-31T02:40:53;5.18;;;3.83;;
49590;SDS011;35496;-21.974;-46.800;2023-07-31T02:43:19;4.97;;;4.15;;
49590;SDS011;35496;-21.974;-46.800;2023-07-31T02:45:44;5.70;;;3.78;;
49590;SDS011;35496;-21.974;-46.800;2023-07-31T02:48:10;6.78;;;4.35;;
49590;SDS011;35496;-21.974;-46.800;2023-07-31T02:50:37;6.32;;;3.83;;
49590;SDS011;35496;-21.974;-46.800;2023-07-31T02:53:03;5.57;;;4.30;;
49590;SDS011;35496;-21.974;-46.800;2023-07-31T02:55:29;8.30;;;4.90;;
49590;SDS011;35496;-21.974;-46.800;2023-07-31T02:57:55;7.28;;;4.25;;
49590;SDS011;35496;-21.974;-46.800;2023-07-31T03:00:21;6.22;;;5.07;;
49590;SDS011;35496;-21.974;-46.800;2023-07-31T03:02:47;8.20;;;5.15;;
49590;SDS011;35496;-21.974;-46.800;2023-07-31T03:05:13;5.22;;;3.80;;
49590;SDS011;35496;-21.974;-46.800;2023-07-31T03:07:39;6.43;;;4.60;;
49590;SDS011;35496;-21.974;-46.800;2023-07-31T03:10:05;6.68;;;3.38;;
49590;SDS011;35496;-21.974;-46.800;2023-07-31T03:12:31;5.57;;;4.63;;
49590;SDS011;35496;-21.974;-46.800;2023-07-31T03:15:00;6.25;;;5.38;;
49590;SDS011;35496;-21.974;-46.800;2023-07-31T03:17:26;6.65;;;4.03;;
49590;SDS011;35496;-21.974;-46.800;2023-07-31T03:19:52;6.05;;;4.15;;
49590;SDS011;35496;-21.974;-46.800;2023-07-31T03:22:18;9.25;;;3.95;;
49590;SDS011;35496;-21.974;-46.800;2023-07-31T03:24:44;8.48;;;4.90;;
49590;SDS011;35496;-21.974;-46.800;2023-07-31T03:27:10;4.97;;;4.40;;
49590;SDS011;35496;-21.974;-46.800;2023-07-31T03:29:36;6.78;;;5.07;;
49590;SDS011;35496;-21.974;-46.800;2023-07-31T03:32:02;15.32;;;7.28;;
49590;SDS011;35496;-21.974;-46.800;2023-07-31T03:34:28;6.47;;;5.25;;
49590;SDS011;35496;-21.974;-46.800;2023-07-31T03:36:55;7.40;;;6.55;;
49590;SDS011;35496;-21.974;-46.800;2023-07-31T03:39:21;8.95;;;6.40;;
49590;SDS011;35496;-21.974;-46.800;2023-07-31T03:41:47;11.30;;;6.88;;
49590;SDS011;35496;-21.974;-46.800;2023-07-31T03:44:13;8.45;;;6.72;;
49590;SDS011;35496;-21.974;-46.800;2023-07-31T03:46:39;12.88;;;6.35;;
49590;SDS011;35496;-21.974;-46.800;2023-07-31T03:49:05;16.08;;;8.50;;
49590;SDS011;35496;-21.974;-46.800;2023-07-31T03:51:31;11.25;;;6.82;;
49590;SDS011;35496;-21.974;-46.800;2023-07-31T03:53:57;13.48;;;8.65;;
49590;SDS011;35496;-21.974;-46.800;2023-07-31T03:56:23;11.45;;;7.20;;
49590;SDS011;35496;-21.974;-46.800;2023-07-31T03:58:49;8.55;;;6.75;;
49590;SDS011;35496;-21.974;-46.800;2023-07-31T04:01:15;13.48;;;8.60;;
49590;SDS011;35496;-21.974;-46.800;2023-07-31T04:03:41;10.30;;;7.50;;
49590;SDS011;35496;-21.974;-46.800;2023-07-31T04:06:07;12.50;;;7.47;;
49590;SDS011;35496;-21.974;-46.800;2023-07-31T04:08:33;10.07;;;6.93;;
49590;SDS011;35496;-21.974;-46.800;2023-07-31T04:10:59;8.30;;;6.85;;
49590;SDS011;35496;-21.974;-46.800;2023-07-31T04:13:25;10.07;;;7.90;;
49590;SDS011;35496;-21.974;-46.800;2023-07-31T04:15:53;13.25;;;8.63;;
49590;SDS011;35496;-21.974;-46.800;2023-07-31T04:18:19;10.55;;;7.43;;
49590;SDS011;35496;-21.974;-46.800;2023-07-31T04:20:45;14.82;;;8.32;;
49590;SDS011;35496;-21.974;-46.800;2023-07-31T04:23:11;10.85;;;6.53;;
49590;SDS011;35496;-21.974;-46.800;2023-07-31T04:25:37;12.70;;;7.97;;
49590;SDS011;35496;-21.974;-46.800;2023-07-31T04:28:03;10.88;;;6.95;;
49590;SDS011;35496;-21.974;-46.800;2023-07-31T04:30:30;17.75;;;8.18;;
49590;SDS011;35496;-21.974;-46.800;2023-07-31T04:32:56;11.82;;;7.78;;
49590;SDS011;35496;-21.974;-46.800;2023-07-31T04:35:22;10.88;;;7.78;;
49590;SDS011;35496;-21.974;-46.800;2023-07-31T04:37:48;9.88;;;7.45;;
49590;SDS011;35496;-21.974;-46.800;2023-07-31T04:40:15;9.43;;;7.53;;
49590;SDS011;35496;-21.974;-46.800;2023-07-31T04:42:41;9.05;;;7.35;;
49590;SDS011;35496;-21.974;-46.800;2023-07-31T04:45:08;12.13;;;7.43;;
49590;SDS011;35496;-21.974;-46.800;2023-07-31T04:47:34;16.48;;;7.22;;
49590;SDS011;35496;-21.974;-46.800;2023-07-31T04:50:00;10.70;;;5.90;;
49590;SDS011;35496;-21.974;-46.800;2023-07-31T04:52:26;18.42;;;7.32;;
49590;SDS011;35496;-21.974;-46.800;2023-07-31T04:54:53;13.93;;;6.80;;
49590;SDS011;35496;-21.974;-46.800;2023-07-31T04:57:19;19.15;;;7.05;;
49590;SDS011;35496;-21.974;-46.800;2023-07-31T04:59:45;9.60;;;7.40;;
49590;SDS011;35496;-21.974;-46.800;2023-07-31T05:02:11;11.57;;;6.47;;
49590;SDS011;35496;-21.974;-46.800;2023-07-31T05:04:38;14.48;;;7.18;;
49590;SDS011;35496;-21.974;-46.800;2023-07-31T05:07:04;10.75;;;6.15;;
49590;SDS011;35496;-21.974;-46.800;2023-07-31T05:09:30;11.05;;;6.82;;
49590;SDS011;35496;-21.974;-46.800;2023-07-31T05:11:56;8.82;;;6.07;;
49590;SDS011;35496;-21.974;-46.800;2023-07-31T05:14:22;14.15;;;6.57;;
49590;SDS011;35496;-21.974;-46.800;2023-07-31T05:16:48;10.77;;;6.53;;
49590;SDS011;35496;-21.974;-46.800;2023-07-31T05:19:14;12.27;;;6.28;;
49590;SDS011;35496;-21.974;-46.800;2023-07-31T05:21:40;13.75;;;6.57;;
49590;SDS011;35496;-21.974;-46.800;2023-07-31T05:24:06;23.02;;;6.93;;
49590;SDS011;35496;-21.974;-46.800;2023-07-31T05:26:32;15.57;;;8.10;;
49590;SDS011;35496;-21.974;-46.800;2023-07-31T05:28:58;13.98;;;5.85;;
49590;SDS011;35496;-21.974;-46.800;2023-07-31T05:31:24;10.82;;;6.00;;
49590;SDS011;35496;-21.974;-46.800;2023-07-31T05:33:51;15.73;;;7.28;;
49590;SDS011;35496;-21.974;-46.800;2023-07-31T05:36:17;20.92;;;7.03;;
49590;SDS011;35496;-21.974;-46.800;2023-07-31T05:38:43;10.98;;;7.03;;
49590;SDS011;35496;-21.974;-46.800;2023-07-31T05:41:11;10.25;;;7.10;;
49590;SDS011;35496;-21.974;-46.800;2023-07-31T05:43:37;11.15;;;6.57;;
49590;SDS011;35496;-21.974;-46.800;2023-07-31T05:46:03;10.63;;;6.80;;
49590;SDS011;35496;-21.974;-46.800;2023-07-31T05:48:29;9.48;;;5.40;;
49590;SDS011;35496;-21.974;-46.800;2023-07-31T05:50:55;16.88;;;6.88;;
49590;SDS011;35496;-21.974;-46.800;2023-07-31T05:53:21;19.70;;;6.57;;
49590;SDS011;35496;-21.974;-46.800;2023-07-31T05:55:47;11.48;;;6.93;;
49590;SDS011;35496;-21.974;-46.800;2023-07-31T05:58:13;14.70;;;6.50;;
49590;SDS011;35496;-21.974;-46.800;2023-07-31T06:00:39;13.13;;;7.15;;
49590;SDS011;35496;-21.974;-46.800;2023-07-31T06:03:06;10.32;;;6.57;;
49590;SDS011;35496;-21.974;-46.800;2023-07-31T06:05:32;12.13;;;7.40;;
49590;SDS011;35496;-21.974;-46.800;2023-07-31T06:07:58;12.85;;;6.97;;
49590;SDS011;35496;-21.974;-46.800;2023-07-31T06:10:24;14.65;;;6.32;;
49590;SDS011;35496;-21.974;-46.800;2023-07-31T06:12:50;16.13;;;7.72;;
49590;SDS011;35496;-21.974;-46.800;2023-07-31T06:15:16;12.07;;;7.07;;
49590;SDS011;35496;-21.974;-46.800;2023-07-31T06:17:44;19.67;;;7.70;;
49590;SDS011;35496;-21.974;-46.800;2023-07-31T06:20:10;18.98;;;6.80;;
49590;SDS011;35496;-21.974;-46.800;2023-07-31T06:22:36;15.27;;;7.78;;
49590;SDS011;35496;-21.974;-46.800;2023-07-31T06:25:02;11.07;;;6.65;;
49590;SDS011;35496;-21.974;-46.800;2023-07-31T06:27:28;18.73;;;8.07;;
49590;SDS011;35496;-21.974;-46.800;2023-07-31T06:29:54;17.42;;;9.27;;
49590;SDS011;35496;-21.974;-46.800;2023-07-31T06:32:20;32.03;;;6.38;;
49590;SDS011;35496;-21.974;-46.800;2023-07-31T06:34:46;13.82;;;6.18;;
49590;SDS011;35496;-21.974;-46.800;2023-07-31T06:37:12;13.85;;;7.07;;
49590;SDS011;35496;-21.974;-46.800;2023-07-31T06:39:38;7.88;;;5.50;;
49590;SDS011;35496;-21.974;-46.800;2023-07-31T06:42:05;12.68;;;6.13;;
49590;SDS011;35496;-21.974;-46.800;2023-07-31T06:44:31;11.68;;;6.47;;
49590;SDS011;35496;-21.974;-46.800;2023-07-31T06:46:57;7.82;;;5.80;;
49590;SDS011;35496;-21.974;-46.800;2023-07-31T06:49:23;12.25;;;6.18;;
49590;SDS011;35496;-21.974;-46.800;2023-07-31T06:51:49;10.85;;;6.65;;
49590;SDS011;35496;-21.974;-46.800;2023-07-31T06:54:15;7.03;;;6.32;;
49590;SDS011;35496;-21.974;-46.800;2023-07-31T06:56:41;10.13;;;6.45;;
49590;SDS011;35496;-21.974;-46.800;2023-07-31T06:59:07;9.18;;;6.43;;
49590;SDS011;35496;-21.974;-46.800;2023-07-31T07:01:33;7.25;;;6.28;;
49590;SDS011;35496;-21.974;-46.800;2023-07-31T07:03:59;7.00;;;6.32;;
49590;SDS011;35496;-21.974;-46.800;2023-07-31T07:06:25;9.02;;;7.03;;
49590;SDS011;35496;-21.974;-46.800;2023-07-31T07:08:51;15.70;;;7.07;;
49590;SDS011;35496;-21.974;-46.800;2023-07-31T07:11:20;12.73;;;7.65;;
49590;SDS011;35496;-21.974;-46.800;2023-07-31T07:13:46;12.57;;;7.38;;
49590;SDS011;35496;-21.974;-46.800;2023-07-31T07:16:12;11.40;;;7.50;;
49590;SDS011;35496;-21.974;-46.800;2023-07-31T07:18:38;10.60;;;7.43;;
49590;SDS011;35496;-21.974;-46.800;2023-07-31T07:21:04;9.10;;;6.03;;
49590;SDS011;35496;-21.974;-46.800;2023-07-31T07:23:30;15.55;;;6.53;;
49590;SDS011;35496;-21.974;-46.800;2023-07-31T07:25:56;13.20;;;7.85;;
49590;SDS011;35496;-21.974;-46.800;2023-07-31T07:28:22;9.38;;;6.75;;
49590;SDS011;35496;-21.974;-46.800;2023-07-31T07:30:51;14.07;;;7.47;;
49590;SDS011;35496;-21.974;-46.800;2023-07-31T07:33:20;11.70;;;5.95;;
49590;SDS011;35496;-21.974;-46.800;2023-07-31T07:35:46;9.93;;;6.00;;
49590;SDS011;35496;-21.974;-46.800;2023-07-31T07:38:13;11.35;;;7.13;;
49590;SDS011;35496;-21.974;-46.800;2023-07-31T07:40:40;11.60;;;7.05;;
49590;SDS011;35496;-21.974;-46.800;2023-07-31T07:43:06;8.43;;;6.78;;
49590;SDS011;35496;-21.974;-46.800;2023-07-31T07:45:32;14.18;;;8.65;;
49590;SDS011;35496;-21.974;-46.800;2023-07-31T07:47:58;13.15;;;7.20;;
49590;SDS011;35496;-21.974;-46.800;2023-07-31T07:50:25;10.57;;;7.72;;
49590;SDS011;35496;-21.974;-46.800;2023-07-31T07:52:50;9.98;;;6.90;;
49590;SDS011;35496;-21.974;-46.800;2023-07-31T07:55:16;13.07;;;7.80;;
49590;SDS011;35496;-21.974;-46.800;2023-07-31T07:57:42;9.52;;;7.13;;
49590;SDS011;35496;-21.974;-46.800;2023-07-31T08:00:10;8.82;;;5.68;;
49590;SDS011;35496;-21.974;-46.800;2023-07-31T08:02:36;11.43;;;7.22;;
49590;SDS011;35496;-21.974;-46.800;2023-07-31T08:05:03;15.43;;;7.03;;
49590;SDS011;35496;-21.974;-46.800;2023-07-31T08:07:29;10.05;;;6.60;;
49590;SDS011;35496;-21.974;-46.800;2023-07-31T08:09:55;11.27;;;7.45;;
49590;SDS011;35496;-21.974;-46.800;2023-07-31T08:12:21;15.55;;;7.55;;
49590;SDS011;35496;-21.974;-46.800;2023-07-31T08:14:47;8.13;;;7.20;;
49590;SDS011;35496;-21.974;-46.800;2023-07-31T08:17:13;11.55;;;8.18;;
49590;SDS011;35496;-21.974;-46.800;2023-07-31T08:19:39;12.65;;;7.43;;
49590;SDS011;35496;-21.974;-46.800;2023-07-31T08:22:05;14.98;;;7.53;;
49590;SDS011;35496;-21.974;-46.800;2023-07-31T08:24:31;16.88;;;8.18;;
49590;SDS011;35496;-21.974;-46.800;2023-07-31T08:26:57;16.40;;;8.10;;
49590;SDS011;35496;-21.974;-46.800;2023-07-31T08:29:24;17.08;;;8.07;;
49590;SDS011;35496;-21.974;-46.800;2023-07-31T08:31:50;13.38;;;8.27;;
49590;SDS011;35496;-21.974;-46.800;2023-07-31T08:34:16;9.00;;;8.10;;
49590;SDS011;35496;-21.974;-46.800;2023-07-31T08:36:42;10.20;;;8.10;;
49590;SDS011;35496;-21.974;-46.800;2023-07-31T08:39:08;9.48;;;6.90;;
49590;SDS011;35496;-21.974;-46.800;2023-07-31T08:41:37;11.43;;;7.43;;
49590;SDS011;35496;-21.974;-46.800;2023-07-31T08:44:04;10.30;;;8.32;;
49590;SDS011;35496;-21.974;-46.800;2023-07-31T08:46:31;14.65;;;8.05;;
49590;SDS011;35496;-21.974;-46.800;2023-07-31T08:48:58;15.68;;;7.53;;
49590;SDS011;35496;-21.974;-46.800;2023-07-31T08:51:25;16.75;;;8.57;;
49590;SDS011;35496;-21.974;-46.800;2023-07-31T08:53:52;12.90;;;7.75;;
49590;SDS011;35496;-21.974;-46.800;2023-07-31T08:56:18;11.20;;;6.65;;
49590;SDS011;35496;-21.974;-46.800;2023-07-31T08:58:45;13.15;;;8.10;;
49590;SDS011;35496;-21.974;-46.800;2023-07-31T09:01:12;13.07;;;7.47;;
49590;SDS011;35496;-21.974;-46.800;2023-07-31T09:03:38;10.90;;;8.00;;
49590;SDS011;35496;-21.974;-46.800;2023-07-31T09:06:05;9.18;;;7.82;;
49590;SDS011;35496;-21.974;-46.800;2023-07-31T09:08:31;14.13;;;8.02;;
49590;SDS011;35496;-21.974;-46.800;2023-07-31T09:11:01;13.52;;;8.48;;
49590;SDS011;35496;-21.974;-46.800;2023-07-31T09:13:31;10.07;;;6.93;;
49590;SDS011;35496;-21.974;-46.800;2023-07-31T09:15:57;12.65;;;7.20;;
49590;SDS011;35496;-21.974;-46.800;2023-07-31T09:18:23;11.20;;;7.72;;
49590;SDS011;35496;-21.974;-46.800;2023-07-31T09:21:03;12.88;;;8.88;;
49590;SDS011;35496;-21.974;-46.800;2023-07-31T09:23:50;9.68;;;6.72;;
49590;SDS011;35496;-21.974;-46.800;2023-07-31T09:26:29;12.98;;;7.78;;
49590;SDS011;35496;-21.974;-46.800;2023-07-31T09:28:56;11.18;;;6.85;;
49590;SDS011;35496;-21.974;-46.800;2023-07-31T09:31:31;8.02;;;6.90;;
49590;SDS011;35496;-21.974;-46.800;2023-07-31T09:33:57;12.13;;;7.63;;
49590;SDS011;35496;-21.974;-46.800;2023-07-31T09:36:24;12.85;;;8.45;;
49590;SDS011;35496;-21.974;-46.800;2023-07-31T09:38:50;9.93;;;8.38;;
49590;SDS011;35496;-21.974;-46.800;2023-07-31T09:41:16;12.02;;;8.80;;
49590;SDS011;35496;-21.974;-46.800;2023-07-31T09:43:42;13.02;;;8.05;;
49590;SDS011;35496;-21.974;-46.800;2023-07-31T09:46:21;13.13;;;9.38;;
49590;SDS011;35496;-21.974;-46.800;2023-07-31T09:48:49;10.32;;;8.18;;
49590;SDS011;35496;-21.974;-46.800;2023-07-31T09:51:16;11.13;;;8.43;;
49590;SDS011;35496;-21.974;-46.800;2023-07-31T09:53:42;11.30;;;7.65;;
49590;SDS011;35496;-21.974;-46.800;2023-07-31T09:56:15;10.73;;;8.10;;
49590;SDS011;35496;-21.974;-46.800;2023-07-31T09:58:42;12.00;;;7.43;;
49590;SDS011;35496;-21.974;-46.800;2023-07-31T10:01:08;18.25;;;8.57;;
49590;SDS011;35496;-21.974;-46.800;2023-07-31T10:03:34;12.88;;;7.85;;
49590;SDS011;35496;-21.974;-46.800;2023-07-31T10:06:00;13.77;;;8.73;;
49590;SDS011;35496;-21.974;-46.800;2023-07-31T10:08:27;13.95;;;9.35;;
49590;SDS011;35496;-21.974;-46.800;2023-07-31T10:11:00;12.77;;;8.88;;
49590;SDS011;35496;-21.974;-46.800;2023-07-31T10:13:28;18.40;;;9.20;;
49590;SDS011;35496;-21.974;-46.800;2023-07-31T10:15:54;11.60;;;8.27;;
49590;SDS011;35496;-21.974;-46.800;2023-07-31T10:18:24;12.40;;;8.10;;
49590;SDS011;35496;-21.974;-46.800;2023-07-31T10:20:50;12.40;;;8.02;;
49590;SDS011;35496;-21.974;-46.800;2023-07-31T10:23:16;12.98;;;9.25;;
49590;SDS011;35496;-21.974;-46.800;2023-07-31T10:25:42;16.08;;;10.25;;
49590;SDS011;35496;-21.974;-46.800;2023-07-31T10:28:09;12.65;;;8.45;;
49590;SDS011;35496;-21.974;-46.800;2023-07-31T10:30:35;12.15;;;8.55;;
49590;SDS011;35496;-21.974;-46.800;2023-07-31T10:33:03;10.68;;;7.30;;
49590;SDS011;35496;-21.974;-46.800;2023-07-31T10:35:31;10.82;;;7.97;;
49590;SDS011;35496;-21.974;-46.800;2023-07-31T10:38:08;16.35;;;7.95;;
49590;SDS011;35496;-21.974;-46.800;2023-07-31T10:40:36;14.23;;;7.88;;
49590;SDS011;35496;-21.974;-46.800;2023-07-31T10:43:02;15.45;;;7.00;;
49590;SDS011;35496;-21.974;-46.800;2023-07-31T10:45:33;13.18;;;7.15;;
49590;SDS011;35496;-21.974;-46.800;2023-07-31T10:48:22;11.88;;;6.07;;
49590;SDS011;35496;-21.974;-46.800;2023-07-31T10:50:50;10.15;;;7.88;;
49590;SDS011;35496;-21.974;-46.800;2023-07-31T10:53:32;7.47;;;6.63;;
49590;SDS011;35496;-21.974;-46.800;2023-07-31T10:56:02;15.55;;;8.40;;
49590;SDS011;35496;-21.974;-46.800;2023-07-31T10:58:29;11.52;;;7.03;;
49590;SDS011;35496;-21.974;-46.800;2023-07-31T11:01:01;10.93;;;6.65;;
49590;SDS011;35496;-21.974;-46.800;2023-07-31T11:06:29;12.00;;;7.45;;
49590;SDS011;35496;-21.974;-46.800;2023-07-31T11:08:55;9.75;;;7.18;;
49590;SDS011;35496;-21.974;-46.800;2023-07-31T11:11:21;11.13;;;6.32;;
49590;SDS011;35496;-21.974;-46.800;2023-07-31T11:13:48;22.25;;;7.90;;
49590;SDS011;35496;-21.974;-46.800;2023-07-31T11:16:15;13.57;;;6.07;;
49590;SDS011;35496;-21.974;-46.800;2023-07-31T11:18:42;14.68;;;7.28;;
49590;SDS011;35496;-21.974;-46.800;2023-07-31T11:21:11;14.55;;;8.07;;
49590;SDS011;35496;-21.974;-46.800;2023-07-31T11:23:37;20.23;;;6.88;;
49590;SDS011;35496;-21.974;-46.800;2023-07-31T11:26:04;12.57;;;6.63;;
49590;SDS011;35496;-21.974;-46.800;2023-07-31T11:28:34;10.25;;;6.72;;
49590;SDS011;35496;-21.974;-46.800;2023-07-31T11:31:00;10.30;;;6.65;;
49590;SDS011;35496;-21.974;-46.800;2023-07-31T11:33:26;8.27;;;4.80;;
49590;SDS011;35496;-21.974;-46.800;2023-07-31T11:35:52;7.93;;;6.90;;
49590;SDS011;35496;-21.974;-46.800;2023-07-31T11:38:22;18.27;;;7.05;;
49590;SDS011;35496;-21.974;-46.800;2023-07-31T11:40:52;11.75;;;5.82;;
49590;SDS011;35496;-21.974;-46.800;2023-07-31T11:43:18;10.48;;;5.32;;
49590;SDS011;35496;-21.974;-46.800;2023-07-31T11:45:48;7.10;;;5.68;;
49590;SDS011;35496;-21.974;-46.800;2023-07-31T11:48:24;14.23;;;5.88;;
49590;SDS011;35496;-21.974;-46.800;2023-07-31T11:50:52;6.82;;;4.82;;
49590;SDS011;35496;-21.974;-46.800;2023-07-31T11:53:19;9.57;;;6.43;;
49590;SDS011;35496;-21.974;-46.800;2023-07-31T11:55:46;9.48;;;5.75;;
49590;SDS011;35496;-21.974;-46.800;2023-07-31T11:58:13;10.63;;;5.82;;
49590;SDS011;35496;-21.974;-46.800;2023-07-31T12:00:40;8.40;;;5.82;;
49590;SDS011;35496;-21.974;-46.800;2023-07-31T12:03:06;15.05;;;6.32;;
49590;SDS011;35496;-21.974;-46.800;2023-07-31T12:05:32;10.85;;;6.15;;
49590;SDS011;35496;-21.974;-46.800;2023-07-31T12:07:58;7.35;;;5.85;;
49590;SDS011;35496;-21.974;-46.800;2023-07-31T12:10:28;9.13;;;6.30;;
49590;SDS011;35496;-21.974;-46.800;2023-07-31T12:13:04;16.23;;;8.75;;
49590;SDS011;35496;-21.974;-46.800;2023-07-31T12:18:03;26.00;;;10.02;;
49590;SDS011;35496;-21.974;-46.800;2023-07-31T12:20:29;27.77;;;8.60;;
49590;SDS011;35496;-21.974;-46.800;2023-07-31T12:22:56;14.95;;;7.53;;
49590;SDS011;35496;-21.974;-46.800;2023-07-31T12:25:28;21.20;;;8.75;;
49590;SDS011;35496;-21.974;-46.800;2023-07-31T12:27:54;19.10;;;8.13;;
49590;SDS011;35496;-21.974;-46.800;2023-07-31T12:30:29;12.13;;;6.72;;
49590;SDS011;35496;-21.974;-46.800;2023-07-31T12:33:02;19.60;;;7.97;;
49590;SDS011;35496;-21.974;-46.800;2023-07-31T12:35:34;14.30;;;7.22;;
49590;SDS011;35496;-21.974;-46.800;2023-07-31T12:38:03;15.98;;;7.10;;
49590;SDS011;35496;-21.974;-46.800;2023-07-31T12:40:29;13.70;;;7.90;;
49590;SDS011;35496;-21.974;-46.800;2023-07-31T12:42:55;19.25;;;8.07;;
49590;SDS011;35496;-21.974;-46.800;2023-07-31T12:45:21;11.27;;;7.03;;
49590;SDS011;35496;-21.974;-46.800;2023-07-31T12:47:48;11.45;;;6.70;;
49590;SDS011;35496;-21.974;-46.800;2023-07-31T12:50:15;10.80;;;6.25;;
49590;SDS011;35496;-21.974;-46.800;2023-07-31T12:52:41;15.13;;;6.53;;
49590;SDS011;35496;-21.974;-46.800;2023-07-31T12:55:07;12.52;;;6.15;;
49590;SDS011;35496;-21.974;-46.800;2023-07-31T12:57:34;9.35;;;5.88;;
49590;SDS011;35496;-21.974;-46.800;2023-07-31T13:00:00;13.93;;;5.85;;
49590;SDS011;35496;-21.974;-46.800;2023-07-31T13:02:26;9.00;;;6.13;;
49590;SDS011;35496;-21.974;-46.800;2023-07-31T13:04:53;9.77;;;6.03;;
49590;SDS011;35496;-21.974;-46.800;2023-07-31T13:07:19;17.42;;;6.60;;
49590;SDS011;35496;-21.974;-46.800;2023-07-31T13:09:45;18.70;;;6.20;;
49590;SDS011;35496;-21.974;-46.800;2023-07-31T13:12:11;9.95;;;5.82;;
49590;SDS011;35496;-21.974;-46.800;2023-07-31T13:14:37;7.28;;;4.97;;
49590;SDS011;35496;-21.974;-46.800;2023-07-31T13:17:03;10.15;;;5.72;;
49590;SDS011;35496;-21.974;-46.800;2023-07-31T13:19:29;18.50;;;6.88;;
49590;SDS011;35496;-21.974;-46.800;2023-07-31T13:21:55;11.57;;;5.47;;
49590;SDS011;35496;-21.974;-46.800;2023-07-31T13:24:21;8.32;;;5.38;;
49590;SDS011;35496;-21.974;-46.800;2023-07-31T13:26:51;10.65;;;5.80;;
49590;SDS011;35496;-21.974;-46.800;2023-07-31T13:29:17;11.68;;;6.00;;
49590;SDS011;35496;-21.974;-46.800;2023-07-31T13:31:43;6.82;;;4.72;;
49590;SDS011;35496;-21.974;-46.800;2023-07-31T13:34:09;7.50;;;5.00;;
49590;SDS011;35496;-21.974;-46.800;2023-07-31T13:36:35;7.32;;;5.32;;
49590;SDS011;35496;-21.974;-46.800;2023-07-31T13:39:02;16.17;;;6.30;;
49590;SDS011;35496;-21.974;-46.800;2023-07-31T13:41:28;11.25;;;4.43;;
49590;SDS011;35496;-21.974;-46.800;2023-07-31T13:43:54;12.38;;;5.45;;
49590;SDS011;35496;-21.974;-46.800;2023-07-31T13:46:20;10.43;;;5.45;;
49590;SDS011;35496;-21.974;-46.800;2023-07-31T13:48:46;6.68;;;4.63;;
49590;SDS011;35496;-21.974;-46.800;2023-07-31T13:51:12;6.97;;;4.97;;
49590;SDS011;35496;-21.974;-46.800;2023-07-31T13:53:38;7.03;;;4.47;;
49590;SDS011;35496;-21.974;-46.800;2023-07-31T13:56:04;5.38;;;4.28;;
49590;SDS011;35496;-21.974;-46.800;2023-07-31T13:58:31;9.68;;;5.63;;
49590;SDS011;35496;-21.974;-46.800;2023-07-31T14:00:57;7.40;;;4.10;;
49590;SDS011;35496;-21.974;-46.800;2023-07-31T14:03:23;4.47;;;3.70;;
49590;SDS011;35496;-21.974;-46.800;2023-07-31T14:05:50;7.50;;;5.40;;
49590;SDS011;35496;-21.974;-46.800;2023-07-31T14:08:16;11.52;;;5.75;;
49590;SDS011;35496;-21.974;-46.800;2023-07-31T14:10:42;4.50;;;4.03;;